Time;durP1;ratioP1;P1;durP2;ratioP2;P2;SDS_P1;SDS_P2;PMS_P1;PMS_P2;Temp;Humidity;BMP_temperature;BMP_pressure;BME280_temperature;BME280_humidity;BME280_pressure;Samples;Min_cycle;Max_cycle;Signal;HPM_P1;HPM_P2
2023/09/17 00:01:19;;;;;;;1.95;1.85;;;;;;;20.75;100.00;100743.94;5074602;28;20697;-76
2023/09/17 00:03:45;;;;;;;0.70;0.70;;;;;;;20.55;100.00;100718.78;5074587;28;20202;-77
2023/09/17 00:06:12;;;;;;;0.80;0.80;;;;;;;20.71;100.00;100741.38;5074248;28;20226;-77
2023/09/17 00:08:39;;;;;;;1.35;1.35;;;;;;;20.61;100.00;100739.78;5074150;28;20198;-77
2023/09/17 00:11:08;;;;;;;1.00;1.00;;;;;;;20.72;100.00;100737.84;5072759;28;20673;-76
2023/09/17 00:13:38;;;;;;;0.80;0.80;;;;;;;20.63;100.00;100724.81;5074236;28;20237;-77
2023/09/17 00:16:05;;;;;;;0.80;0.80;;;;;;;20.65;100.00;100736.22;5074281;28;20199;-77
2023/09/17 00:18:32;;;;;;;1.25;1.25;;;;;;;20.60;100.00;100730.13;5073957;28;20194;-78
2023/09/17 00:20:58;;;;;;;1.58;1.58;;;;;;;20.64;100.00;100734.47;5074143;28;20202;-77
2023/09/17 00:23:25;;;;;;;1.13;1.13;;;;;;;20.63;100.00;100740.63;5055501;28;20202;-77
2023/09/17 00:25:52;;;;;;;1.42;1.27;;;;;;;20.45;100.00;100717.19;5074017;28;20285;-77
2023/09/17 00:28:19;;;;;;;2.47;1.55;;;;;;;20.61;100.00;100734.53;5073822;28;20337;-77
2023/09/17 00:30:47;;;;;;;1.23;1.23;;;;;;;20.53;100.00;100721.47;5074115;28;20209;-78
2023/09/17 00:33:14;;;;;;;0.90;0.90;;;;;;;20.51;100.00;100719.75;5055477;28;20658;-77
2023/09/17 00:35:40;;;;;;;1.92;1.42;;;;;;;20.51;100.00;100717.94;5074010;28;20694;-76
2023/09/17 00:38:09;;;;;;;1.05;1.05;;;;;;;20.58;100.00;100734.56;5073157;28;20195;-78
2023/09/17 00:40:37;;;;;;;1.27;1.17;;;;;;;20.58;100.00;100737.19;5074092;28;20199;-77
2023/09/17 00:43:04;;;;;;;1.00;1.00;;;;;;;20.63;100.00;100737.97;5073681;28;20682;-78
2023/09/17 00:45:32;;;;;;;0.93;0.93;;;;;;;20.66;100.00;100737.94;5073878;28;20214;-77
2023/09/17 00:48:01;;;;;;;1.00;1.00;;;;;;;20.63;100.00;100743.25;5073227;28;20222;-77
2023/09/17 00:50:31;;;;;;;1.85;1.50;;;;;;;20.44;100.00;100720.72;5073585;28;20642;-77
2023/09/17 00:52:58;;;;;;;1.08;1.08;;;;;;;20.54;100.00;100733.75;5073087;28;20666;-77
2023/09/17 00:55:25;;;;;;;0.80;0.80;;;;;;;20.51;100.00;100738.19;5073212;28;20191;-78
2023/09/17 00:57:53;;;;;;;1.13;1.13;;;;;;;20.45;100.00;100709.28;5072542;28;20245;-77
2023/09/17 01:00:21;;;;;;;0.80;0.80;;;;;;;20.55;100.00;100724.03;5073031;28;20729;-78
2023/09/17 01:02:48;;;;;;;1.25;1.25;;;;;;;20.56;100.00;100725.78;5072576;28;20206;-76
2023/09/17 01:05:17;;;;;;;0.70;0.70;;;;;;;20.54;100.00;100717.06;5073380;28;20199;-77
2023/09/17 01:07:45;;;;;;;0.80;0.80;;;;;;;20.49;100.00;100724.16;5072338;28;20272;-76
2023/09/17 01:10:13;;;;;;;1.40;1.40;;;;;;;20.54;100.00;100723.22;5073173;28;20207;-76
2023/09/17 01:12:41;;;;;;;2.10;2.00;;;;;;;20.51;100.00;100717.13;5073344;28;20579;-78
2023/09/17 01:15:09;;;;;;;1.00;1.00;;;;;;;20.51;100.00;100712.69;5073415;28;20199;-78
2023/09/17 01:17:36;;;;;;;1.75;1.40;;;;;;;20.30;100.00;100680.56;5072286;28;20226;-77
2023/09/17 01:20:22;;;;;;;1.35;1.35;;;;;;;20.49;100.00;100709.22;5054149;28;20212;-77
2023/09/17 01:22:53;;;;;;;1.73;1.63;;;;;;;20.47;100.00;100695.22;5072857;28;20249;-78
2023/09/17 01:25:29;;;;;;;1.30;1.20;;;;;;;20.39;100.00;100678.66;5072938;28;20260;-77
2023/09/17 01:27:58;;;;;;;1.25;1.25;;;;;;;20.11;100.00;100643.06;5064996;28;20316;-76
2023/09/17 01:30:25;;;;;;;0.82;0.82;;;;;;;20.38;100.00;100690.06;5072819;28;20194;-77
2023/09/17 01:32:52;;;;;;;1.02;1.02;;;;;;;20.50;100.00;100705.69;5072636;28;20694;-77
2023/09/17 01:35:19;;;;;;;1.08;1.08;;;;;;;20.56;100.00;100710.00;5072799;28;20191;-78
2023/09/17 01:37:50;;;;;;;1.10;1.10;;;;;;;20.50;100.00;100707.47;5071968;28;20207;-77
2023/09/17 01:40:18;;;;;;;1.08;1.08;;;;;;;20.28;100.00;100683.19;5072610;28;20199;-77
2023/09/17 01:42:47;;;;;;;0.80;0.80;;;;;;;20.41;100.00;100697.03;5072352;28;20225;-76
2023/09/17 01:45:16;;;;;;;1.23;1.20;;;;;;;20.43;100.00;100703.19;5072267;28;20257;-77
2023/09/17 01:47:45;;;;;;;0.90;0.90;;;;;;;20.38;100.00;100697.09;5017352;28;20223;-77
2023/09/17 01:50:16;;;;;;;1.23;1.23;;;;;;;20.40;100.00;100703.22;5052092;28;20222;-76
2023/09/17 01:52:44;;;;;;;0.82;0.82;;;;;;;20.23;100.00;100701.66;5052279;28;20212;-76
2023/09/17 01:55:12;;;;;;;1.52;1.52;;;;;;;20.20;100.00;100693.81;5052080;28;20234;-77
2023/09/17 01:57:39;;;;;;;0.80;0.80;;;;;;;20.19;100.00;100704.38;5061023;28;20214;-76
2023/09/17 02:00:14;;;;;;;0.70;0.70;;;;;;;20.30;100.00;100707.75;5072206;28;20654;-77
2023/09/17 02:02:46;;;;;;;1.02;1.02;;;;;;;20.24;100.00;100702.53;5072028;28;20202;-77
2023/09/17 02:05:14;;;;;;;0.70;0.70;;;;;;;20.05;100.00;100669.44;5071782;28;20569;-77
2023/09/17 02:07:40;;;;;;;1.25;1.25;;;;;;;20.18;100.00;100703.50;5052954;28;20226;-77
2023/09/17 02:10:08;;;;;;;1.30;1.30;;;;;;;20.25;100.00;100705.16;5071980;28;20214;-77
2023/09/17 02:12:35;;;;;;;1.90;1.80;;;;;;;20.22;100.00;100699.94;5071896;28;20205;-78
2023/09/17 02:15:03;;;;;;;1.00;1.00;;;;;;;20.12;100.00;100703.56;5072012;28;20214;-77
2023/09/17 02:17:30;;;;;;;0.82;0.82;;;;;;;20.05;100.00;100694.03;5071416;28;20207;-77
2023/09/17 02:19:58;;;;;;;0.70;0.70;;;;;;;20.02;100.00;100691.44;5053224;28;20210;-77
2023/09/17 02:22:25;;;;;;;0.80;0.80;;;;;;;19.94;100.00;100692.44;5071951;28;20195;-77
2023/09/17 02:24:51;;;;;;;1.27;1.27;;;;;;;19.89;100.00;100695.13;5071607;28;20210;-76
2023/09/17 02:27:18;;;;;;;1.70;1.65;;;;;;;19.83;100.00;100692.59;5070807;28;20659;-77
2023/09/17 02:29:45;;;;;;;1.10;1.10;;;;;;;19.89;100.00;100689.88;5071695;28;20199;-77
2023/09/17 02:32:12;;;;;;;0.80;0.80;;;;;;;19.92;100.00;100689.81;5071662;28;20206;-77
2023/09/17 02:34:39;;;;;;;0.70;0.70;;;;;;;19.87;100.00;100694.25;5035734;28;20685;-78
2023/09/17 02:37:07;;;;;;;1.85;1.75;;;;;;;19.93;100.00;100699.47;5071173;28;20203;-77
2023/09/17 02:39:35;;;;;;;2.00;1.90;;;;;;;19.85;100.00;100698.69;5071862;28;20202;-77
2023/09/17 02:42:03;;;;;;;1.27;1.27;;;;;;;19.84;100.00;100680.28;5071548;28;20233;-77
2023/09/17 02:44:30;;;;;;;0.98;0.98;;;;;;;19.94;100.00;100697.72;5071633;28;20211;-77
2023/09/17 02:46:56;;;;;;;1.40;1.30;;;;;;;19.81;100.00;100675.94;5071152;28;20202;-77
2023/09/17 02:49:23;;;;;;;4.43;1.70;;;;;;;19.93;100.00;100691.56;5071607;28;20203;-77
2023/09/17 02:51:51;;;;;;;2.00;1.63;;;;;;;19.96;100.00;100681.00;5071612;28;20203;-77
2023/09/17 02:54:19;;;;;;;1.15;1.15;;;;;;;20.05;100.00;100688.75;5071467;28;20294;-77
2023/09/17 02:56:45;;;;;;;1.10;1.10;;;;;;;20.01;100.00;100688.84;5071054;28;20195;-78
2023/09/17 02:59:12;;;;;;;3.10;2.85;;;;;;;20.00;100.00;100687.09;5071294;28;20203;-77
2023/09/17 03:01:40;;;;;;;0.93;0.93;;;;;;;19.98;100.00;100684.47;5071653;28;20198;-77
2023/09/17 03:04:06;;;;;;;0.73;0.73;;;;;;;19.76;100.00;100647.03;5071306;28;20226;-77
2023/09/17 03:06:34;;;;;;;0.80;0.80;;;;;;;20.01;100.00;100680.94;5071089;28;20210;-77
2023/09/17 03:09:01;;;;;;;1.60;1.58;;;;;;;20.00;100.00;100680.06;5071209;28;20317;-76
2023/09/17 03:11:29;;;;;;;0.95;0.95;;;;;;;20.02;100.00;100680.03;5071584;28;20201;-77
2023/09/17 03:13:57;;;;;;;1.33;1.23;;;;;;;19.84;100.00;100659.22;5071074;28;20321;-77
2023/09/17 03:16:23;;;;;;;1.15;1.15;;;;;;;19.98;100.00;100684.47;5071130;28;20309;-77
2023/09/17 03:18:50;;;;;;;3.40;1.42;;;;;;;19.92;100.00;100684.56;5071577;28;20658;-77
2023/09/17 03:21:18;;;;;;;1.48;1.48;;;;;;;19.94;100.00;100695.94;5070862;28;20218;-76
2023/09/17 03:23:45;;;;;;;1.45;1.20;;;;;;;19.93;100.00;100693.34;5070927;28;20203;-77
2023/09/17 03:26:11;;;;;;;0.95;0.93;;;;;;;19.99;100.00;100690.59;5070897;28;20199;-77
2023/09/17 03:28:40;;;;;;;1.13;1.13;;;;;;;20.11;100.00;100691.31;5071210;28;20218;-77
2023/09/17 03:31:06;;;;;;;0.90;0.90;;;;;;;20.09;100.00;100692.22;5052374;28;20195;-76
2023/09/17 03:33:33;;;;;;;1.08;1.08;;;;;;;19.92;100.00;100684.56;5070718;28;20194;-77
2023/09/17 03:36:03;;;;;;;0.80;0.80;;;;;;;19.84;100.00;100686.41;5070799;28;20206;-77
2023/09/17 03:38:29;;;;;;;0.82;0.82;;;;;;;19.83;100.00;100689.97;5071097;28;20199;-76
2023/09/17 03:40:59;;;;;;;0.98;0.98;;;;;;;19.89;100.00;100686.38;5071076;28;20685;-76
2023/09/17 03:43:27;;;;;;;1.75;1.42;;;;;;;19.62;100.00;100617.41;5071049;28;20281;-76
2023/09/17 03:45:55;;;;;;;1.20;1.15;;;;;;;20.14;100.00;100682.50;5072098;28;20678;-76
2023/09/17 03:48:22;;;;;;;1.15;1.15;;;;;;;20.03;100.00;100661.59;5074393;28;20336;-76
2023/09/17 03:50:49;;;;;;;0.73;0.73;;;;;;;20.17;100.00;100691.22;5039646;28;20693;-76
2023/09/17 03:53:16;;;;;;;1.05;1.00;;;;;;;20.14;100.00;100686.00;5074442;28;20191;-76
2023/09/17 03:55:43;;;;;;;1.63;1.58;;;;;;;20.06;100.00;100685.25;5039138;28;20667;-76
2023/09/17 03:58:10;;;;;;;4.18;2.08;;;;;;;20.10;100.00;100681.69;5073963;28;20203;-76
2023/09/17 04:00:37;;;;;;;1.13;1.13;;;;;;;20.01;100.00;100694.94;5074274;28;20212;-75
2023/09/17 04:03:08;;;;;;;0.80;0.80;;;;;;;20.08;100.00;100688.72;5074264;28;20194;-77
2023/09/17 04:05:35;;;;;;;1.23;1.23;;;;;;;20.10;100.00;100692.22;5074288;28;20195;-78
2023/09/17 04:08:02;;;;;;;1.17;1.17;;;;;;;20.04;100.00;100679.13;5073975;28;20218;-77
2023/09/17 04:10:29;;;;;;;2.10;2.00;;;;;;;20.19;100.00;100699.97;5074527;28;20294;-78
2023/09/17 04:12:56;;;;;;;1.13;1.13;;;;;;;20.27;100.00;100703.41;5073999;28;20296;-78
2023/09/17 04:15:22;;;;;;;0.70;0.70;;;;;;;20.26;100.00;100700.78;5038686;28;20205;-76
2023/09/17 04:17:50;;;;;;;1.45;1.10;;;;;;;20.11;100.00;100658.84;5073843;28;20214;-76
2023/09/17 04:20:19;;;;;;;1.30;1.20;;;;;;;20.27;100.00;100684.97;5074160;28;20206;-77
2023/09/17 04:22:48;;;;;;;1.42;1.33;;;;;;;20.21;100.00;100692.06;5074306;28;20195;-77
2023/09/17 04:25:17;;;;;;;1.33;1.23;;;;;;;20.02;100.00;100686.16;5074139;28;20686;-77
2023/09/17 04:27:44;;;;;;;0.95;0.95;;;;;;;20.06;100.00;100714.19;5073823;28;20234;-77
2023/09/17 04:30:13;;;;;;;1.17;1.17;;;;;;;19.88;100.00;100682.84;5073862;28;20207;-76
2023/09/17 04:32:42;;;;;;;0.90;0.90;;;;;;;19.90;100.00;100704.78;5073422;28;20199;-77
2023/09/17 04:35:10;;;;;;;0.70;0.70;;;;;;;19.75;100.00;100697.94;5053786;28;20230;-77
2023/09/17 04:37:40;;;;;;;1.08;1.08;;;;;;;19.60;100.00;100679.72;5041695;28;20201;-77
2023/09/17 04:40:08;;;;;;;0.80;0.80;;;;;;;19.64;100.00;100688.44;5053635;28;20200;-77
2023/09/17 04:42:36;;;;;;;1.15;1.15;;;;;;;19.64;100.00;100712.13;5063384;28;20195;-77
2023/09/17 04:45:04;;;;;;;1.25;1.25;;;;;;;19.75;100.00;100716.38;5073127;28;20226;-77
2023/09/17 04:47:31;;;;;;;2.08;1.38;;;;;;;19.65;100.00;100691.06;5073554;28;20297;-77
2023/09/17 04:49:58;;;;;;;1.08;1.08;;;;;;;19.66;100.00;100718.22;5073765;28;20292;-77
2023/09/17 04:52:24;;;;;;;1.80;1.70;;;;;;;19.76;100.00;100719.88;5037746;28;20277;-78
2023/09/17 04:54:52;;;;;;;0.90;0.90;;;;;;;19.89;100.00;100726.72;5073562;28;20206;-79
2023/09/17 04:57:19;;;;;;;1.38;1.30;;;;;;;19.81;100.00;100723.31;5072568;28;20207;-79
2023/09/17 04:59:46;;;;;;;0.88;0.85;;;;;;;19.81;100.00;100704.88;5073050;28;20195;-79
2023/09/17 05:02:14;;;;;;;0.70;0.70;;;;;;;19.87;100.00;100723.22;5073446;28;20295;-74
2023/09/17 05:04:41;;;;;;;0.80;0.80;;;;;;;20.04;100.00;100728.28;5072624;28;20595;-74
2023/09/17 05:07:07;;;;;;;0.82;0.82;;;;;;;20.03;100.00;100714.25;5036993;28;20269;-74
2023/09/17 05:09:34;;;;;;;1.00;1.00;;;;;;;20.37;100.00;100737.53;5072748;28;20705;-74
2023/09/17 05:12:02;;;;;;;1.95;1.00;;;;;;;20.28;100.00;100710.41;5072909;28;20210;-74
2023/09/17 05:14:29;;;;;;;1.08;1.08;;;;;;;19.97;100.00;100664.31;5072886;28;20238;-79
2023/09/17 05:16:56;;;;;;;0.73;0.73;;;;;;;20.40;100.00;100730.44;5037957;28;20222;-78
2023/09/17 05:19:23;;;;;;;1.40;1.33;;;;;;;20.50;100.00;100732.03;5073099;28;20205;-78
2023/09/17 05:21:51;;;;;;;0.93;0.93;;;;;;;20.60;100.00;100738.03;5068676;28;20196;-78
2023/09/17 05:24:17;;;;;;;1.10;1.10;;;;;;;20.55;100.00;100739.84;5062778;28;20210;-79
2023/09/17 05:26:44;;;;;;;1.35;1.35;;;;;;;20.38;100.00;100737.47;5062124;28;20287;-72
2023/09/17 05:29:16;;;;;;;1.15;1.15;;;;;;;20.45;100.00;100709.28;5067570;28;20222;-74
2023/09/17 05:31:43;;;;;;;0.82;0.82;;;;;;;20.54;100.00;100730.25;5057158;28;20204;-78
2023/09/17 05:34:09;;;;;;;2.90;0.93;;;;;;;20.56;100.00;100741.59;5055086;28;20293;-75
2023/09/17 05:36:36;;;;;;;0.98;0.98;;;;;;;20.69;100.00;100741.38;5070479;28;20222;-73
2023/09/17 05:39:03;;;;;;;0.82;0.82;;;;;;;20.67;100.00;100730.00;5063989;28;20686;-75
2023/09/17 05:41:30;;;;;;;1.85;1.65;;;;;;;20.81;100.00;100753.50;5060753;28;20698;-76
2023/09/17 05:43:57;;;;;;;0.80;0.80;;;;;;;20.83;100.00;100746.47;5030458;28;20203;-75
2023/09/17 05:46:25;;;;;;;0.70;0.70;;;;;;;20.96;100.00;100748.00;5067078;28;20207;-76
2023/09/17 05:48:51;;;;;;;1.10;1.10;;;;;;;20.92;100.00;100754.22;5071134;28;20230;-75
2023/09/17 05:51:18;;;;;;;0.80;0.80;;;;;;;21.13;100.00;100750.38;5071419;28;20206;-75
2023/09/17 05:53:45;;;;;;;1.55;1.10;;;;;;;21.24;100.00;100756.31;5070890;28;20203;-75
2023/09/17 05:56:12;;;;;;;0.82;0.82;;;;;;;21.43;100.00;100767.44;5067599;28;20217;-75
2023/09/17 05:58:38;;;;;;;0.60;0.60;;;;;;;21.58;100.00;100764.50;5070608;28;20220;-75
2023/09/17 06:01:05;;;;;;;1.60;1.60;;;;;;;21.38;100.00;100761.34;5069911;28;20213;-77
2023/09/17 06:03:33;;;;;;;0.93;0.93;;;;;;;21.57;100.00;100773.31;5068438;28;20215;-76
2023/09/17 06:06:00;;;;;;;0.88;0.88;;;;;;;21.32;100.00;100761.47;5070837;28;20202;-76
2023/09/17 06:08:28;;;;;;;1.02;1.02;;;;;;;21.49;100.00;100762.03;5070403;28;20233;-75
2023/09/17 06:10:55;;;;;;;1.10;1.10;;;;;;;21.60;100.00;100762.69;5070330;28;20684;-76
2023/09/17 06:13:22;;;;;;;0.80;0.80;;;;;;;21.77;100.00;100761.47;5070828;28;20231;-73
2023/09/17 06:15:49;;;;;;;1.35;1.30;;;;;;;21.82;100.00;100752.59;5066983;28;20268;-75
2023/09/17 06:18:18;;;;;;;1.98;1.88;;;;;;;21.69;100.00;100762.50;5070283;28;20206;-78
2023/09/17 06:20:47;;;;;;;1.75;1.25;;;;;;;21.76;100.00;100761.47;5068755;28;20209;-73
2023/09/17 06:23:14;;;;;;;0.75;0.75;;;;;;;21.75;100.00;100762.41;5069998;28;20195;-73
2023/09/17 06:25:41;;;;;;;2.92;2.75;;;;;;;21.53;100.00;100761.06;5023067;28;20207;-76
2023/09/17 06:28:08;;;;;;;1.23;1.23;;;;;;;21.74;100.00;100769.44;5070772;28;20227;-75
2023/09/17 06:30:35;;;;;;;2.63;2.42;;;;;;;21.65;100.00;100761.69;5062463;28;20269;-74
2023/09/17 06:33:03;;;;;;;1.02;1.02;;;;;;;21.53;100.00;100766.34;5065026;28;20619;-72
2023/09/17 06:35:30;;;;;;;1.73;1.73;;;;;;;21.54;100.00;100742.59;5070597;28;20674;-73
2023/09/17 06:37:58;;;;;;;0.98;0.98;;;;;;;21.98;100.00;100759.31;5064653;28;20207;-75
2023/09/17 06:40:25;;;;;;;1.27;1.27;;;;;;;21.97;100.00;100760.25;5069794;28;20195;-76
2023/09/17 06:42:52;;;;;;;1.00;0.82;;;;;;;22.28;100.00;100765.72;5070383;28;20221;-78
2023/09/17 06:45:19;;;;;;;1.10;1.10;;;;;;;22.35;100.00;100776.13;5071865;28;20211;-77
2023/09/17 06:47:46;;;;;;;0.80;0.80;;;;;;;22.01;100.00;100754.00;5070091;28;20217;-76
2023/09/17 06:50:13;;;;;;;0.82;0.82;;;;;;;22.26;100.00;100775.47;5069880;28;20253;-76
2023/09/17 06:52:40;;;;;;;1.30;1.30;;;;;;;22.16;100.00;100785.34;5070010;28;20203;-75
2023/09/17 06:55:09;;;;;;;1.35;1.30;;;;;;;22.30;100.00;100777.13;5064930;28;20686;-78
2023/09/17 06:57:36;;;;;;;2.03;1.92;;;;;;;22.43;100.00;100786.53;5069975;28;20203;-77
2023/09/17 07:00:03;;;;;;;0.90;0.90;;;;;;;22.39;100.00;100777.81;5070049;28;20216;-78
2023/09/17 07:02:30;;;;;;;1.10;1.10;;;;;;;22.40;100.00;100763.66;5070346;28;20229;-76
2023/09/17 07:05:00;;;;;;;1.10;1.10;;;;;;;22.56;100.00;100774.78;5069865;28;20207;-77
2023/09/17 07:07:26;;;;;;;0.93;0.93;;;;;;;22.75;100.00;100776.13;5069901;28;20194;-75
2023/09/17 07:09:53;;;;;;;1.10;1.00;;;;;;;22.88;100.00;100780.22;5069885;28;20237;-76
2023/09/17 07:12:21;;;;;;;0.95;0.95;;;;;;;23.10;100.00;100778.78;5070318;28;20732;-77
2023/09/17 07:14:48;;;;;;;1.25;1.25;;;;;;;23.14;100.00;100784.88;5060433;28;20217;-76
2023/09/17 07:17:16;;;;;;;0.80;0.80;;;;;;;23.33;100.00;100779.97;5069985;28;20209;-78
2023/09/17 07:19:43;;;;;;;1.00;1.00;;;;;;;23.08;100.00;100783.22;5064964;28;20261;-76
2023/09/17 07:22:14;;;;;;;0.80;0.80;;;;;;;23.19;100.00;100781.19;5073248;28;20203;-78
2023/09/17 07:24:41;;;;;;;1.17;1.17;;;;;;;23.32;100.00;100786.16;5073490;28;20303;-76
2023/09/17 07:27:08;;;;;;;1.10;1.10;;;;;;;23.07;100.00;100785.94;5069313;28;20206;-75
2023/09/17 07:29:36;;;;;;;1.55;1.52;;;;;;;23.31;100.00;100779.13;5034186;28;20231;-75
2023/09/17 07:32:03;;;;;;;0.90;0.90;;;;;;;23.12;100.00;100749.63;5063657;28;20199;-75
2023/09/17 07:34:30;;;;;;;0.70;0.70;;;;;;;22.85;100.00;100694.78;5072613;28;20199;-76
2023/09/17 07:36:59;;;;;;;0.95;0.95;;;;;;;23.26;100.00;100757.22;5073467;28;20206;-77
2023/09/17 07:39:26;;;;;;;1.10;1.00;;;;;;;23.13;100.00;100725.78;5072817;28;20202;-77
2023/09/17 07:41:53;;;;;;;0.70;0.70;;;;;;;23.63;100.00;100780.06;5073486;28;20203;-77
2023/09/17 07:44:20;;;;;;;0.70;0.70;;;;;;;23.74;100.00;100777.09;5073065;28;20202;-77
2023/09/17 07:46:48;;;;;;;1.25;1.25;;;;;;;23.85;100.00;100785.63;5073529;28;20203;-77
2023/09/17 07:49:15;;;;;;;0.85;0.85;;;;;;;23.79;100.00;100780.50;5064505;28;20222;-78
2023/09/17 07:51:42;;;;;;;1.40;1.30;;;;;;;24.04;100.00;100781.53;5037717;28;20206;-75
2023/09/17 07:54:08;;;;;;;1.40;1.40;;;;;;;24.21;100.00;100788.16;5073291;28;20257;-75
2023/09/17 07:56:35;;;;;;;1.50;1.50;;;;;;;24.21;100.00;100767.81;5073339;28;20222;-76
2023/09/17 07:59:03;;;;;;;1.10;1.10;;;;;;;24.37;100.00;100752.31;5073042;28;20195;-77
2023/09/17 08:01:30;;;;;;;1.17;1.15;;;;;;;24.56;100.00;100780.88;5073695;28;20579;-76
2023/09/17 08:03:58;;;;;;;2.58;1.85;;;;;;;24.88;100.00;100777.22;5073218;28;20195;-77
2023/09/17 08:06:25;;;;;;;1.75;1.65;;;;;;;24.64;100.00;100746.16;5073716;28;20195;-77
2023/09/17 08:08:52;;;;;;;1.30;1.20;;;;;;;24.47;100.00;100737.88;5064533;28;20240;-76
2023/09/17 08:11:19;;;;;;;0.70;0.70;;;;;;;24.94;100.00;100773.50;5073080;28;20625;-76
2023/09/17 08:13:48;;;;;;;0.80;0.80;;;;;;;24.65;100.00;100764.66;5071447;28;20288;-76
2023/09/17 08:16:15;;;;;;;1.00;1.00;;;;;;;24.64;100.00;100754.13;5072950;28;20195;-76
2023/09/17 08:18:42;;;;;;;0.70;0.70;;;;;;;24.48;100.00;100763.44;5072048;28;20207;-75
2023/09/17 08:21:10;;;;;;;0.90;0.90;;;;;;;24.78;100.00;100764.28;5072823;28;20202;-78
2023/09/17 08:23:38;;;;;;;1.55;1.45;;;;;;;24.82;100.00;100764.13;5034321;28;20694;-77
2023/09/17 08:26:05;;;;;;;0.82;0.82;;;;;;;24.83;100.00;100763.22;5071191;28;21013;-78
2023/09/17 08:28:32;;;;;;;0.82;0.82;;;;;;;25.09;100.00;100765.03;5072465;28;20214;-76
2023/09/17 08:30:59;;;;;;;0.88;0.88;;;;;;;25.40;100.00;100760.38;5067682;28;20203;-78
2023/09/17 08:33:25;;;;;;;0.95;0.95;;;;;;;25.49;100.00;100759.22;5071617;28;20199;-77
2023/09/17 08:35:52;;;;;;;0.90;0.90;;;;;;;25.47;100.00;100747.78;5072686;28;20221;-78
2023/09/17 08:38:20;;;;;;;1.48;1.00;;;;;;;25.89;100.00;100759.56;5071570;28;20195;-75
2023/09/17 08:40:48;;;;;;;3.28;1.25;;;;;;;25.94;99.21;100760.22;5072154;28;20693;-77
2023/09/17 08:43:16;;;;;;;1.27;1.27;;;;;;;25.91;99.53;100757.69;5072199;28;20789;-78
2023/09/17 08:45:43;;;;;;;1.10;1.10;;;;;;;25.91;98.17;100763.00;5071396;28;20202;-75
2023/09/17 08:48:10;;;;;;;1.27;1.15;;;;;;;26.02;99.82;100749.31;5067528;28;20776;-76
2023/09/17 08:50:38;;;;;;;1.35;1.35;;;;;;;25.93;97.90;100749.66;5036467;28;20680;-75
2023/09/17 08:53:08;;;;;;;1.42;1.33;;;;;;;25.73;100.00;100760.16;5071981;28;20222;-76
2023/09/17 08:55:36;;;;;;;1.23;1.23;;;;;;;25.61;99.41;100717.16;5071997;28;20214;-79
2023/09/17 08:58:10;;;;;;;1.02;1.02;;;;;;;26.03;97.48;100751.06;5070015;28;20206;-73
2023/09/17 09:00:39;;;;;;;0.70;0.70;;;;;;;26.12;95.18;100751.56;5071893;28;20206;-73
2023/09/17 09:03:08;;;;;;;1.20;1.20;;;;;;;25.66;96.87;100714.34;5071684;28;20210;-80
2023/09/17 09:05:36;;;;;;;1.30;1.20;;;;;;;25.69;98.25;100766.50;5033956;28;20199;-76
2023/09/17 09:08:04;;;;;;;2.08;1.50;;;;;;;25.67;99.26;100761.25;5071248;28;20295;-77
2023/09/17 09:10:32;;;;;;;1.10;1.05;;;;;;;25.63;100.00;100755.19;5070321;28;20615;-78
2023/09/17 09:13:00;;;;;;;2.15;1.95;;;;;;;25.63;100.00;100756.97;5072580;28;20272;-77
2023/09/17 09:15:28;;;;;;;1.33;1.23;;;;;;;25.78;100.00;100732.50;5069446;28;20230;-79
2023/09/17 09:17:55;;;;;;;0.90;0.90;;;;;;;25.86;96.37;100746.38;5064882;28;20203;-77
2023/09/17 09:20:22;;;;;;;1.02;1.02;;;;;;;25.84;99.13;100739.38;5066239;28;20203;-77
2023/09/17 09:22:49;;;;;;;1.25;1.23;;;;;;;25.58;98.06;100742.97;5062444;28;20202;-76
2023/09/17 09:25:18;;;;;;;1.30;1.30;;;;;;;25.56;99.65;100758.97;5069362;28;20916;-76
2023/09/17 09:27:45;;;;;;;1.50;1.35;;;;;;;25.74;99.26;100753.91;5069756;28;20302;-77
2023/09/17 09:30:15;;;;;;;0.90;0.90;;;;;;;25.63;98.90;100757.84;5069696;28;20218;-79
2023/09/17 09:32:42;;;;;;;1.17;1.15;;;;;;;25.78;98.13;100751.09;5071901;28;20697;-76
2023/09/17 09:35:10;;;;;;;1.80;1.70;;;;;;;25.78;96.94;100721.88;5070950;28;20238;-78
2023/09/17 09:37:37;;;;;;;1.27;1.17;;;;;;;26.01;97.21;100743.13;5071176;28;20217;-77
2023/09/17 09:40:06;;;;;;;1.42;1.33;;;;;;;26.13;96.17;100747.97;5071073;28;20198;-79
2023/09/17 09:42:33;;;;;;;0.70;0.70;;;;;;;25.90;94.19;100739.16;5069600;28;20286;-77
2023/09/17 09:45:00;;;;;;;1.52;1.52;;;;;;;25.78;98.63;100745.78;5070955;28;20211;-75
2023/09/17 09:47:28;;;;;;;0.90;0.90;;;;;;;25.83;100.00;100740.28;5070933;28;20207;-76
2023/09/17 09:49:56;;;;;;;0.80;0.80;;;;;;;25.96;98.08;100747.75;5070951;28;20265;-76
2023/09/17 09:52:24;;;;;;;1.15;1.15;;;;;;;25.62;96.41;100643.66;5056524;28;20659;-77
2023/09/17 09:54:51;;;;;;;0.98;0.98;;;;;;;26.14;95.90;100743.53;5063764;28;20199;-75
2023/09/17 09:57:19;;;;;;;1.02;1.02;;;;;;;26.23;96.86;100748.53;5069057;28;20210;-77
2023/09/17 09:59:48;;;;;;;0.85;0.85;;;;;;;25.73;95.59;100689.28;5068641;28;20286;-76
2023/09/17 10:02:17;;;;;;;1.10;1.10;;;;;;;26.06;97.92;100742.97;5064619;28;20657;-76
2023/09/17 10:04:45;;;;;;;1.42;1.35;;;;;;;26.09;94.83;100732.19;5070067;28;20207;-74
2023/09/17 10:07:13;;;;;;;1.17;1.17;;;;;;;25.98;96.62;100726.41;5035072;28;20210;-76
2023/09/17 10:09:41;;;;;;;1.67;1.58;;;;;;;25.97;96.89;100741.50;5067774;28;20235;-78
2023/09/17 10:12:08;;;;;;;1.23;1.10;;;;;;;25.54;96.75;100685.59;5018711;28;20210;-75
2023/09/17 10:14:37;;;;;;;1.42;1.33;;;;;;;25.82;97.04;100718.19;5069886;28;20333;-75
2023/09/17 10:17:06;;;;;;;1.25;1.23;;;;;;;25.85;94.22;100695.94;5069930;28;20226;-75
2023/09/17 10:19:35;;;;;;;1.17;1.15;;;;;;;25.93;95.20;100710.69;5069560;28;20199;-74
2023/09/17 10:22:06;;;;;;;0.90;0.90;;;;;;;26.23;93.54;100737.88;5066237;28;20202;-75
2023/09/17 10:24:36;;;;;;;0.93;0.93;;;;;;;26.17;93.31;100738.09;5070197;28;20316;-78
2023/09/17 10:27:04;;;;;;;1.15;1.15;;;;;;;25.88;94.38;100712.63;5067426;28;20292;-79
2023/09/17 10:29:33;;;;;;;1.90;1.30;;;;;;;26.24;93.14;100729.00;5070347;28;20222;-78
2023/09/17 10:32:02;;;;;;;0.80;0.80;;;;;;;26.58;90.36;100723.19;5065182;28;20203;-79
2023/09/17 10:34:31;;;;;;;1.38;1.38;;;;;;;26.82;88.84;100732.88;5070668;28;20234;-80
2023/09/17 10:36:59;;;;;;;1.60;1.50;;;;;;;26.81;88.48;100736.44;5069492;28;20205;-79
2023/09/17 10:39:28;;;;;;;0.85;0.85;;;;;;;27.02;87.81;100738.22;5070232;28;20244;-77
2023/09/17 10:41:57;;;;;;;2.90;1.45;;;;;;;26.90;86.16;100730.75;5067599;28;20306;-77
2023/09/17 10:44:25;;;;;;;0.98;0.98;;;;;;;27.00;84.85;100732.06;5070413;28;20202;-77
2023/09/17 10:46:53;;;;;;;1.05;1.05;;;;;;;26.82;86.27;100700.03;5063548;28;20203;-77
2023/09/17 10:49:21;;;;;;;1.08;1.05;;;;;;;27.07;86.48;100732.72;5070133;28;20214;-77
2023/09/17 10:51:51;;;;;;;1.27;1.27;;;;;;;27.27;83.58;100723.84;5069765;28;20211;-75
2023/09/17 10:54:18;;;;;;;0.90;0.90;;;;;;;26.98;82.27;100707.34;5070420;28;20205;-76
2023/09/17 10:56:46;;;;;;;1.10;1.10;;;;;;;27.13;83.73;100718.25;5072518;28;20214;-74
2023/09/17 10:59:17;;;;;;;0.85;0.85;;;;;;;26.74;83.46;100660.44;5060172;28;20203;-77
2023/09/17 11:01:46;;;;;;;1.35;1.25;;;;;;;27.23;82.41;100727.56;5074150;28;20207;-76
2023/09/17 11:04:16;;;;;;;1.73;1.33;;;;;;;27.00;83.56;100716.09;5074069;28;20654;-78
2023/09/17 11:06:45;;;;;;;0.95;0.95;;;;;;;26.40;84.56;100649.44;5055296;28;20209;-76
2023/09/17 11:09:13;;;;;;;2.13;2.00;;;;;;;26.68;85.06;100716.59;5073135;28;20229;-77
2023/09/17 11:11:41;;;;;;;1.23;1.13;;;;;;;27.10;85.13;100711.28;5074299;28;20321;-77
2023/09/17 11:14:10;;;;;;;1.38;1.38;;;;;;;27.46;80.79;100708.84;5037946;28;20326;-76
2023/09/17 11:16:37;;;;;;;1.25;1.25;;;;;;;27.34;79.83;100710.19;5073110;28;20209;-78
2023/09/17 11:19:05;;;;;;;2.83;2.63;;;;;;;27.48;79.06;100669.66;5071643;28;20248;-77
2023/09/17 11:21:35;;;;;;;4.07;1.73;;;;;;;27.53;79.60;100687.19;5073363;28;20226;-75